createdAt,value
2022-10-20T00:01:11.631Z,8.23
2022-10-20T00:03:38.392Z,11.65
2022-10-20T00:06:09.529Z,6.78
2022-10-20T00:08:36.241Z,8.93
2022-10-20T00:11:04.506Z,5.55
2022-10-20T00:13:31.580Z,13.13
2022-10-20T00:15:59.605Z,7.10
2022-10-20T00:18:28.597Z,6.38
2022-10-20T00:20:55.630Z,7.80
2022-10-20T00:23:23.348Z,7.03
2022-10-20T00:25:59.806Z,6.63
2022-10-20T00:28:26.407Z,4.43
2022-10-20T00:30:56.723Z,6.75
2022-10-20T00:33:24.107Z,6.28
2022-10-20T00:35:50.753Z,7.80
2022-10-20T00:40:48.856Z,3.95
2022-10-20T00:43:17.537Z,5.78
2022-10-20T00:45:49.932Z,4.18
2022-10-20T00:48:20.029Z,6.82
2022-10-20T00:50:52.629Z,6.22
2022-10-20T00:53:21.492Z,3.75
2022-10-20T00:55:50.273Z,3.97
2022-10-20T00:58:18.031Z,6.88
2022-10-20T01:00:46.162Z,5.72
2022-10-20T01:03:18.046Z,8.02
2022-10-20T01:05:44.693Z,6.88
2022-10-20T01:08:11.344Z,7.13
2022-10-20T01:10:58.084Z,6.63
2022-10-20T01:13:46.881Z,7.22
2022-10-20T01:16:55.139Z,7.75
2022-10-20T01:19:34.632Z,6.70
2022-10-20T01:22:25.948Z,5.15
2022-10-20T01:25:07.195Z,4.38
2022-10-20T01:27:55.779Z,5.77
2022-10-20T01:30:23.479Z,5.35
2022-10-20T01:33:14.755Z,7.57
2022-10-20T01:36:04.600Z,6.45
2022-10-20T01:38:43.078Z,5.57
2022-10-20T01:41:33.910Z,6.40
2022-10-20T01:44:03.247Z,4.35
2022-10-20T01:46:30.914Z,7.25
2022-10-20T01:48:58.561Z,8.77
2022-10-20T01:51:25.202Z,5.32
2022-10-20T01:53:51.812Z,7.18
2022-10-20T01:56:26.606Z,4.40
2022-10-20T01:59:21.928Z,5.53
2022-10-20T02:02:15.469Z,6.80
2022-10-20T02:05:08.230Z,6.28
2022-10-20T02:07:35.375Z,7.45
2022-10-20T02:10:22.776Z,5.07
2022-10-20T02:12:53.455Z,7.03
2022-10-20T02:15:24.092Z,6.35
2022-10-20T02:17:57.405Z,5.40
2022-10-20T02:20:25.940Z,7.35
2022-10-20T02:22:53.424Z,10.30
2022-10-20T02:25:21.040Z,6.80
2022-10-20T02:27:48.136Z,9.05
2022-10-20T02:30:18.347Z,9.73
2022-10-20T02:32:49.692Z,8.57
2022-10-20T02:35:23.557Z,8.82
2022-10-20T02:37:50.601Z,9.88
2022-10-20T02:40:17.423Z,6.95
2022-10-20T02:42:44.153Z,7.28
2022-10-20T02:45:11.035Z,5.78
2022-10-20T02:47:37.962Z,7.32
2022-10-20T02:50:06.283Z,5.90
2022-10-20T02:52:32.943Z,6.78
2022-10-20T02:55:00.200Z,13.15
2022-10-20T02:57:26.940Z,9.30
2022-10-20T02:59:53.663Z,8.75
2022-10-20T03:02:20.433Z,9.10
2022-10-20T03:04:47.074Z,10.23
2022-10-20T03:07:13.892Z,7.43
2022-10-20T03:09:40.677Z,4.28
2022-10-20T03:12:07.282Z,9.25
2022-10-20T03:14:33.945Z,4.93
2022-10-20T03:17:00.535Z,8.43
2022-10-20T03:19:27.209Z,8.38
2022-10-20T03:21:53.861Z,6.55
2022-10-20T03:24:20.700Z,8.70
2022-10-20T03:26:47.326Z,8.15
2022-10-20T03:29:13.943Z,5.38
2022-10-20T03:31:40.601Z,7.70
2022-10-20T03:34:07.263Z,4.97
2022-10-20T03:36:34.029Z,6.38
2022-10-20T03:39:00.714Z,8.15
2022-10-20T03:41:27.444Z,6.70
2022-10-20T03:43:54.120Z,4.82
2022-10-20T03:46:20.854Z,5.05
2022-10-20T03:48:47.527Z,5.85
2022-10-20T03:51:14.917Z,8.13
2022-10-20T03:53:41.527Z,6.78
2022-10-20T03:56:15.966Z,5.70
2022-10-20T03:58:42.579Z,6.28
2022-10-20T04:01:15.122Z,6.20
2022-10-20T04:03:42.276Z,7.82
2022-10-20T04:06:08.919Z,6.47
2022-10-20T04:08:35.634Z,10.70
2022-10-20T04:11:02.295Z,6.65
2022-10-20T04:13:28.990Z,5.75
2022-10-20T04:15:55.612Z,7.43
2022-10-20T04:18:22.215Z,5.38
2022-10-20T04:20:49.290Z,8.27
2022-10-20T04:23:15.939Z,7.63
2022-10-20T04:25:47.462Z,4.63
2022-10-20T04:28:19.356Z,6.75
2022-10-20T04:30:47.111Z,7.80
2022-10-20T04:33:14.147Z,4.60
2022-10-20T04:35:41.119Z,6.97
2022-10-20T04:38:07.881Z,6.53
2022-10-20T04:40:34.616Z,8.45
2022-10-20T04:43:02.952Z,4.57
2022-10-20T04:45:29.603Z,7.22
2022-10-20T04:47:56.256Z,5.30
2022-10-20T04:50:25.707Z,7.18
2022-10-20T04:52:52.324Z,5.40
2022-10-20T04:55:20.183Z,6.50
2022-10-20T04:57:46.790Z,5.93
2022-10-20T05:00:13.880Z,7.90
2022-10-20T05:02:40.524Z,4.25
2022-10-20T05:05:07.456Z,10.38
2022-10-20T05:07:34.513Z,6.68
2022-10-20T05:10:04.208Z,9.05
2022-10-20T05:12:30.835Z,10.32
2022-10-20T05:14:57.483Z,8.40
2022-10-20T05:17:24.146Z,7.90
2022-10-20T05:19:50.803Z,4.47
2022-10-20T05:22:17.403Z,4.65
2022-10-20T05:24:44.041Z,6.85
2022-10-20T05:27:10.668Z,9.18
2022-10-20T05:29:37.299Z,8.25
2022-10-20T05:32:04.131Z,5.53
2022-10-20T05:34:30.836Z,5.03
2022-10-20T05:36:57.455Z,5.95
2022-10-20T05:39:24.041Z,11.00
2022-10-20T05:41:50.700Z,8.32
2022-10-20T05:44:17.313Z,6.43
2022-10-20T05:46:43.979Z,7.07
2022-10-20T05:49:14.091Z,8.20
2022-10-20T05:51:41.085Z,9.27
2022-10-20T05:54:10.495Z,8.43
2022-10-20T05:56:37.131Z,9.20
2022-10-20T05:59:03.751Z,8.38
2022-10-20T06:01:48.158Z,10.75
2022-10-20T06:04:17.667Z,9.88
2022-10-20T06:06:44.630Z,7.75
2022-10-20T06:09:11.605Z,7.35
2022-10-20T06:11:39.631Z,7.50
2022-10-20T06:14:07.874Z,9.50
2022-10-20T06:16:34.838Z,11.45
2022-10-20T06:19:02.861Z,8.82
2022-10-20T06:21:32.558Z,7.57
2022-10-20T06:24:00.536Z,11.10
2022-10-20T06:26:36.315Z,6.97
2022-10-20T06:29:05.118Z,11.80
2022-10-20T06:31:40.989Z,14.52
2022-10-20T06:34:16.361Z,7.93
2022-10-20T06:36:43.658Z,9.95
2022-10-20T06:39:18.679Z,11.88
2022-10-20T06:41:50.504Z,8.93
2022-10-20T06:44:18.416Z,7.43
2022-10-20T06:46:45.399Z,11.95
2022-10-20T06:49:14.679Z,7.45
2022-10-20T06:51:41.480Z,12.73
2022-10-20T06:54:09.245Z,8.95
2022-10-20T06:56:37.152Z,15.30
2022-10-20T06:59:04.538Z,11.57
2022-10-20T07:01:40.434Z,10.40
2022-10-20T07:04:13.734Z,9.43
2022-10-20T07:06:42.610Z,12.45
2022-10-20T07:09:14.512Z,9.23
2022-10-20T07:11:41.277Z,10.35
2022-10-20T07:14:07.909Z,17.05
2022-10-20T07:16:35.368Z,15.88
2022-10-20T07:19:03.448Z,14.40
2022-10-20T07:21:34.992Z,13.27
2022-10-20T07:24:06.018Z,18.08
2022-10-20T07:26:35.692Z,14.23
2022-10-20T07:29:03.723Z,11.27
2022-10-20T07:31:33.644Z,13.93
2022-10-20T07:34:13.732Z,14.32
2022-10-20T07:36:49.248Z,11.45
2022-10-20T07:39:16.071Z,13.45
2022-10-20T07:41:45.594Z,12.82
2022-10-20T07:44:12.331Z,11.70
2022-10-20T07:46:38.984Z,12.48
2022-10-20T07:51:52.240Z,11.85
2022-10-20T07:54:18.923Z,14.55
2022-10-20T07:56:46.301Z,12.60
2022-10-20T07:59:13.593Z,15.43
2022-10-20T08:01:40.397Z,14.77
2022-10-20T08:04:07.667Z,7.75
2022-10-20T08:06:34.541Z,11.65
2022-10-20T08:09:01.392Z,10.45
2022-10-20T08:11:28.287Z,11.95
2022-10-20T08:13:55.045Z,13.07
2022-10-20T08:19:09.943Z,14.18
2022-10-20T08:21:36.554Z,14.60
2022-10-20T08:24:03.828Z,11.20
2022-10-20T08:26:30.554Z,13.85
2022-10-20T08:28:57.199Z,11.02
2022-10-20T08:31:23.933Z,12.48
2022-10-20T08:33:52.995Z,7.45
2022-10-20T08:36:20.918Z,9.55
2022-10-20T08:38:47.971Z,10.93
2022-10-20T08:41:38.787Z,10.95
2022-10-20T08:44:23.533Z,13.70
2022-10-20T08:46:50.176Z,11.68
2022-10-20T08:49:35.525Z,12.63
2022-10-20T08:52:02.918Z,10.55
2022-10-20T08:54:32.278Z,12.27
2022-10-20T08:56:59.137Z,8.40
2022-10-20T08:59:34.390Z,11.68
2022-10-20T09:02:03.878Z,8.40
2022-10-20T09:04:51.114Z,9.27
2022-10-20T09:07:28.765Z,15.80
2022-10-20T09:10:21.442Z,10.82
2022-10-20T09:12:49.263Z,13.05
2022-10-20T09:15:17.733Z,13.32
2022-10-20T09:18:09.181Z,9.57
2022-10-20T09:20:52.416Z,11.60
2022-10-20T09:23:39.904Z,10.63
2022-10-20T09:26:54.629Z,8.63
2022-10-20T09:29:35.520Z,9.00
2022-10-20T09:32:16.777Z,10.48
2022-10-20T09:34:48.872Z,9.13
2022-10-20T09:37:19.279Z,9.15
2022-10-20T09:39:55.696Z,8.07
2022-10-20T09:42:27.175Z,6.50
2022-10-20T09:45:04.237Z,11.23
2022-10-20T09:47:31.739Z,18.63
2022-10-20T09:50:04.549Z,11.13
2022-10-20T09:52:35.325Z,12.82
2022-10-20T09:55:07.048Z,11.73
2022-10-20T09:57:34.412Z,13.35
2022-10-20T10:00:18.962Z,14.38
2022-10-20T10:02:48.143Z,13.98
2022-10-20T10:05:19.452Z,12.60
2022-10-20T10:07:58.004Z,13.27
2022-10-20T10:10:27.695Z,8.43
2022-10-20T10:12:57.115Z,7.13
2022-10-20T10:15:28.713Z,11.68
2022-10-20T10:17:55.895Z,14.80
2022-10-20T10:20:22.622Z,11.85
2022-10-20T10:22:49.228Z,12.15
2022-10-20T10:25:22.412Z,9.38
2022-10-20T10:28:03.272Z,14.65
2022-10-20T10:30:37.138Z,15.80
2022-10-20T10:33:25.194Z,14.13
2022-10-20T10:35:52.433Z,12.77
2022-10-20T10:38:19.667Z,13.40
2022-10-20T10:41:06.187Z,13.43
2022-10-20T10:43:44.907Z,14.85
2022-10-20T10:46:21.528Z,16.55
2022-10-20T10:49:06.548Z,13.20
2022-10-20T10:51:55.384Z,13.23
2022-10-20T10:54:28.648Z,11.32
2022-10-20T10:57:01.074Z,12.93
2022-10-20T10:59:28.162Z,12.48
2022-10-20T11:02:22.220Z,11.75
2022-10-20T11:04:48.786Z,14.57
2022-10-20T11:07:46.623Z,13.18
2022-10-20T11:10:45.421Z,10.95
2022-10-20T11:13:36.195Z,14.35
2022-10-20T11:16:27.054Z,19.15
2022-10-20T11:19:03.617Z,13.05
2022-10-20T11:21:52.206Z,13.13
2022-10-20T11:24:40.003Z,12.18
2022-10-20T11:27:16.765Z,13.82
2022-10-20T11:29:57.514Z,10.52
2022-10-20T11:32:31.221Z,11.05
2022-10-20T11:35:07.808Z,12.25
2022-10-20T11:38:14.577Z,12.00
2022-10-20T11:40:48.276Z,13.93
2022-10-20T11:43:34.322Z,16.38
2022-10-20T11:46:06.600Z,16.73
2022-10-20T11:48:49.009Z,20.48
2022-10-20T11:51:31.137Z,18.52
2022-10-20T11:57:37.045Z,15.30
2022-10-20T12:03:20.085Z,13.55
2022-10-20T12:05:55.561Z,13.57
2022-10-20T12:08:52.693Z,19.90
2022-10-20T12:11:39.201Z,17.48
2022-10-20T12:14:15.028Z,15.43
2022-10-20T12:16:53.896Z,16.33
2022-10-20T12:19:28.331Z,19.92
2022-10-20T12:22:00.745Z,18.58
2022-10-20T12:24:37.928Z,18.23
2022-10-20T12:27:24.171Z,17.38
2022-10-20T12:29:56.851Z,11.80
2022-10-20T12:32:29.274Z,15.50
2022-10-20T12:35:23.337Z,15.73
2022-10-20T12:38:02.961Z,11.10
2022-10-20T12:40:41.010Z,10.90
2022-10-20T12:43:28.421Z,12.57
2022-10-20T12:45:59.554Z,12.20
2022-10-20T12:48:26.940Z,13.13
2022-10-20T12:51:01.861Z,14.85
2022-10-20T12:53:30.859Z,13.27
2022-10-20T12:56:10.596Z,16.77
2022-10-20T12:58:39.321Z,16.23
2022-10-20T13:01:11.870Z,17.20
2022-10-20T13:03:47.313Z,21.35
2022-10-20T13:06:23.081Z,13.90
2022-10-20T13:09:06.004Z,9.68
2022-10-20T13:11:38.551Z,15.63
2022-10-20T13:14:49.450Z,18.52
2022-10-20T13:17:26.407Z,18.38
2022-10-20T13:20:02.754Z,13.23
2022-10-20T13:22:38.025Z,17.25
2022-10-20T13:25:13.116Z,14.98
2022-10-20T13:27:40.055Z,15.50
2022-10-20T13:30:09.217Z,14.75
2022-10-20T13:33:17.856Z,22.13
2022-10-20T13:36:11.465Z,17.90
2022-10-20T13:38:47.250Z,14.73
2022-10-20T13:41:29.777Z,18.38
2022-10-20T13:44:09.862Z,13.93
2022-10-20T13:47:15.860Z,18.45
2022-10-20T13:49:55.589Z,15.25
2022-10-20T13:52:25.399Z,15.32
2022-10-20T13:54:52.448Z,23.02
2022-10-20T13:57:29.726Z,20.55
2022-10-20T14:00:16.072Z,16.52
2022-10-20T14:02:53.213Z,20.10
2022-10-20T14:05:22.191Z,19.55
2022-10-20T14:07:50.654Z,17.52
2022-10-20T14:10:27.542Z,18.33
2022-10-20T14:12:55.368Z,19.42
2022-10-20T14:15:32.794Z,21.08
2022-10-20T14:18:05.679Z,18.40
2022-10-20T14:20:37.343Z,13.48
2022-10-20T14:23:05.738Z,20.73
2022-10-20T14:25:33.275Z,14.38
2022-10-20T14:28:03.846Z,13.30
2022-10-20T14:30:35.395Z,15.70
2022-10-20T14:35:40.839Z,17.23
2022-10-20T14:38:46.186Z,15.70
2022-10-20T14:41:23.151Z,18.83
2022-10-20T14:43:54.686Z,25.55
2022-10-20T14:46:30.750Z,16.02
2022-10-20T14:48:59.536Z,17.10
2022-10-20T14:51:53.412Z,19.75
2022-10-20T14:54:20.140Z,14.82
2022-10-20T14:56:49.910Z,14.45
2022-10-20T14:59:23.164Z,14.85
2022-10-20T15:02:10.078Z,16.17
2022-10-20T15:04:41.260Z,11.75
2022-10-20T15:07:13.258Z,17.08
2022-10-20T15:12:31.309Z,12.57
2022-10-20T15:15:10.267Z,14.60
2022-10-20T15:17:39.012Z,14.00
2022-10-20T15:20:27.725Z,18.00
2022-10-20T15:22:55.437Z,13.75
2022-10-20T15:25:23.050Z,15.07
2022-10-20T15:27:49.963Z,15.80
2022-10-20T15:30:21.316Z,12.70
2022-10-20T15:32:48.392Z,18.52
2022-10-20T15:35:19.161Z,17.90
2022-10-20T15:37:53.257Z,19.20
2022-10-20T15:40:21.020Z,19.42
2022-10-20T15:42:48.577Z,14.07
2022-10-20T15:45:18.739Z,21.02
2022-10-20T15:47:45.557Z,14.40
2022-10-20T15:50:12.713Z,16.65
2022-10-20T15:52:39.943Z,13.70
2022-10-20T15:55:37.685Z,14.30
2022-10-20T15:58:04.445Z,18.05
2022-10-20T16:00:31.185Z,15.02
2022-10-20T16:02:57.813Z,14.75
2022-10-20T16:05:25.916Z,12.40
2022-10-20T16:07:54.149Z,11.00
2022-10-20T16:10:25.519Z,18.50
2022-10-20T16:12:52.380Z,12.77
2022-10-20T16:15:19.358Z,13.60
2022-10-20T16:17:46.893Z,12.75
2022-10-20T16:20:14.694Z,12.05
2022-10-20T16:22:41.485Z,9.57
2022-10-20T16:25:09.080Z,13.63
2022-10-20T16:27:35.982Z,12.02
2022-10-20T16:30:04.698Z,10.43
2022-10-20T16:32:34.533Z,13.32
2022-10-20T16:35:04.497Z,22.58
2022-10-20T16:37:32.432Z,20.15
2022-10-20T16:39:59.890Z,13.10
2022-10-20T16:42:28.220Z,11.40
2022-10-20T16:44:54.908Z,12.18
2022-10-20T16:47:21.615Z,11.88
2022-10-20T16:49:48.272Z,12.07
2022-10-20T16:52:14.891Z,13.43
2022-10-20T16:57:13.864Z,12.15
2022-10-20T16:59:42.385Z,10.43
2022-10-20T17:02:12.031Z,9.98
2022-10-20T17:04:38.768Z,10.70
2022-10-20T17:07:05.678Z,10.65
2022-10-20T17:09:32.281Z,9.57
2022-10-20T17:11:58.910Z,16.92
2022-10-20T17:14:25.564Z,15.13
2022-10-20T17:16:52.196Z,13.88
2022-10-20T17:19:18.836Z,16.30
2022-10-20T17:21:45.528Z,13.13
2022-10-20T17:24:12.792Z,13.52
2022-10-20T17:26:43.369Z,10.13
2022-10-20T17:29:10.358Z,18.23
2022-10-20T17:31:37.947Z,18.60
2022-10-20T17:34:05.282Z,15.18
2022-10-20T17:36:32.668Z,15.43
2022-10-20T17:39:06.179Z,16.17
2022-10-20T17:41:33.482Z,17.60
2022-10-20T17:44:04.094Z,19.83
2022-10-20T17:46:30.905Z,18.10
2022-10-20T17:48:57.617Z,17.73
2022-10-20T17:51:27.860Z,20.67
2022-10-20T17:53:58.017Z,18.88
2022-10-20T17:56:29.188Z,11.85
2022-10-20T17:58:56.953Z,13.90
2022-10-20T18:01:32.379Z,16.23
2022-10-20T18:04:01.917Z,11.93
2022-10-20T18:06:34.161Z,16.75
2022-10-20T18:09:04.531Z,16.02
2022-10-20T18:11:33.537Z,27.42
2022-10-20T18:14:03.324Z,27.05
2022-10-20T18:16:33.366Z,15.88
2022-10-20T18:19:00.699Z,18.88
2022-10-20T18:21:29.198Z,13.75
2022-10-20T18:24:04.183Z,22.90
2022-10-20T18:26:32.957Z,15.02
2022-10-20T18:29:03.395Z,24.15
2022-10-20T18:31:31.650Z,16.50
2022-10-20T18:34:04.209Z,19.75
2022-10-20T18:36:34.294Z,19.00
2022-10-20T18:39:02.914Z,23.20
2022-10-20T18:41:32.978Z,19.42
2022-10-20T18:44:03.723Z,15.27
2022-10-20T18:46:31.904Z,14.27
2022-10-20T18:49:00.177Z,18.85
2022-10-20T18:51:27.308Z,18.58
2022-10-20T18:53:56.525Z,21.23
2022-10-20T18:56:25.625Z,19.35
2022-10-20T18:58:53.361Z,16.77
2022-10-20T19:01:25.232Z,17.30
2022-10-20T19:03:53.699Z,29.05
2022-10-20T19:06:27.142Z,16.98
2022-10-20T19:09:03.496Z,17.92
2022-10-20T19:11:32.703Z,25.42
2022-10-20T19:14:00.150Z,17.80
2022-10-20T19:16:29.664Z,18.20
2022-10-20T19:18:58.373Z,16.65
2022-10-20T19:21:26.161Z,25.45
2022-10-20T19:23:58.011Z,24.02
2022-10-20T19:26:30.731Z,27.70
2022-10-20T19:29:01.146Z,20.70
2022-10-20T19:31:32.031Z,18.70
2022-10-20T19:34:03.720Z,24.17
2022-10-20T19:36:30.666Z,25.42
2022-10-20T19:38:58.025Z,19.55
2022-10-20T19:41:25.570Z,19.70
2022-10-20T19:43:52.261Z,20.42
2022-10-20T19:46:19.956Z,24.30
2022-10-20T19:48:47.802Z,17.95
2022-10-20T19:51:16.645Z,19.52
2022-10-20T19:53:44.029Z,20.15
2022-10-20T19:56:11.135Z,18.58
2022-10-20T19:58:41.352Z,17.35
2022-10-20T20:01:11.206Z,18.30
2022-10-20T20:03:37.919Z,22.90
2022-10-20T20:06:07.916Z,18.42
2022-10-20T20:08:35.081Z,20.40
2022-10-20T20:11:04.289Z,20.02
2022-10-20T20:13:31.013Z,20.63
2022-10-20T20:15:57.829Z,18.67
2022-10-20T20:18:24.529Z,23.10
2022-10-20T20:20:51.143Z,22.42
2022-10-20T20:23:22.502Z,19.25
2022-10-20T20:25:52.520Z,18.33
2022-10-20T20:28:19.168Z,25.45
2022-10-20T20:30:59.968Z,19.92
2022-10-20T20:33:26.816Z,18.67
2022-10-20T20:36:03.995Z,18.23
2022-10-20T20:38:32.240Z,18.75
2022-10-20T20:41:00.185Z,21.45
2022-10-20T20:43:27.108Z,20.75
2022-10-20T20:45:53.926Z,19.15
2022-10-20T20:48:20.592Z,17.73
2022-10-20T20:50:57.743Z,21.08
2022-10-20T20:53:24.758Z,16.17
2022-10-20T20:55:56.111Z,18.55
2022-10-20T20:58:23.563Z,22.73
2022-10-20T21:00:50.627Z,20.13
2022-10-20T21:03:18.437Z,19.20
2022-10-20T21:05:45.087Z,19.63
2022-10-20T21:08:11.711Z,16.75
2022-10-20T21:10:38.332Z,27.48
2022-10-20T21:13:04.976Z,22.95
2022-10-20T21:15:31.585Z,18.67
2022-10-20T21:17:58.547Z,15.90
2022-10-20T21:20:25.292Z,24.80
2022-10-20T21:22:51.926Z,15.65
2022-10-20T21:25:18.719Z,16.98
2022-10-20T21:27:45.441Z,19.10
2022-10-20T21:30:12.084Z,22.58
2022-10-20T21:32:38.952Z,22.45
2022-10-20T21:35:06.021Z,17.30
2022-10-20T21:37:32.625Z,19.67
2022-10-20T21:39:59.233Z,24.40
2022-10-20T21:42:26.105Z,24.33
2022-10-20T21:44:52.751Z,22.05
2022-10-20T21:47:19.356Z,16.17
2022-10-20T21:49:45.997Z,25.05
2022-10-20T21:52:12.734Z,28.77
2022-10-20T21:54:39.341Z,32.75
2022-10-20T21:57:05.964Z,28.17
2022-10-20T21:59:32.590Z,27.13
2022-10-20T22:02:00.874Z,19.85
2022-10-20T22:04:29.965Z,25.02
2022-10-20T22:06:57.107Z,24.42
2022-10-20T22:09:26.980Z,21.55
2022-10-20T22:11:55.892Z,24.63
2022-10-20T22:14:23.665Z,25.95
2022-10-20T22:16:50.639Z,21.48
2022-10-20T22:19:19.989Z,19.05
2022-10-20T22:21:48.511Z,22.65
2022-10-20T22:24:16.409Z,30.60
2022-10-20T22:26:43.212Z,22.63
2022-10-20T22:29:10.896Z,17.67
2022-10-20T22:31:39.300Z,18.02
2022-10-20T22:34:06.691Z,19.25
2022-10-20T22:36:33.425Z,18.85
2022-10-20T22:39:00.185Z,17.92
2022-10-20T22:41:26.857Z,16.85
2022-10-20T22:43:53.509Z,15.18
2022-10-20T22:46:20.251Z,17.02
2022-10-20T22:48:47.221Z,20.45
2022-10-20T22:51:14.438Z,18.33
2022-10-20T22:53:41.177Z,16.30
2022-10-20T22:56:14.040Z,19.63
2022-10-20T22:58:42.370Z,17.73
2022-10-20T23:01:11.722Z,13.70
2022-10-20T23:03:38.927Z,13.45
2022-10-20T23:06:08.300Z,14.65
2022-10-20T23:08:39.521Z,14.00
2022-10-20T23:11:06.201Z,17.55
2022-10-20T23:13:32.876Z,21.58
2022-10-20T23:15:59.486Z,21.30
2022-10-20T23:18:26.092Z,19.65
2022-10-20T23:20:54.826Z,16.25
2022-10-20T23:23:24.150Z,21.80
2022-10-20T23:25:51.463Z,17.58
2022-10-20T23:28:19.077Z,17.17
2022-10-20T23:30:45.767Z,23.52
2022-10-20T23:33:12.472Z,17.25
2022-10-20T23:35:39.184Z,22.00
2022-10-20T23:38:09.127Z,22.67
2022-10-20T23:40:36.277Z,16.70
2022-10-20T23:43:03.246Z,14.95
2022-10-20T23:45:31.799Z,15.35
2022-10-20T23:48:00.850Z,14.10
2022-10-20T23:50:27.486Z,13.02
2022-10-20T23:52:54.298Z,18.02
2022-10-20T23:55:20.951Z,16.52
2022-10-20T23:57:50.568Z,13.07
